sensor_id;sensor_type;location;lat;lon;timestamp;temperature;humidity
10390;DHT22;5241;47.830;12.972;2022-12-07T00:00:48;3.40;99.90
10390;DHT22;5241;47.830;12.972;2022-12-07T00:03:14;3.40;99.90
10390;DHT22;5241;47.830;12.972;2022-12-07T00:05:39;3.40;99.90
10390;DHT22;5241;47.830;12.972;2022-12-07T00:08:05;3.40;99.90
10390;DHT22;5241;47.830;12.972;2022-12-07T00:10:33;3.40;99.90
10390;DHT22;5241;47.830;12.972;2022-12-07T00:12:59;3.40;99.90
10390;DHT22;5241;47.830;12.972;2022-12-07T00:15:24;3.40;99.90
10390;DHT22;5241;47.830;12.972;2022-12-07T00:17:50;3.40;99.90
10390;DHT22;5241;47.830;12.972;2022-12-07T00:20:15;3.40;99.90
10390;DHT22;5241;47.830;12.972;2022-12-07T00:22:41;3.40;99.90
10390;DHT22;5241;47.830;12.972;2022-12-07T00:25:07;3.40;99.90
10390;DHT22;5241;47.830;12.972;2022-12-07T00:27:32;3.40;99.90
10390;DHT22;5241;47.830;12.972;2022-12-07T00:29:58;3.40;99.90
10390;DHT22;5241;47.830;12.972;2022-12-07T00:32:23;3.40;99.90
10390;DHT22;5241;47.830;12.972;2022-12-07T00:34:49;3.40;99.90
10390;DHT22;5241;47.830;12.972;2022-12-07T00:37:14;3.40;99.90
10390;DHT22;5241;47.830;12.972;2022-12-07T00:39:40;3.40;99.90
10390;DHT22;5241;47.830;12.972;2022-12-07T00:42:05;3.40;99.90
10390;DHT22;5241;47.830;12.972;2022-12-07T00:44:31;3.40;99.90
10390;DHT22;5241;47.830;12.972;2022-12-07T00:46:56;3.40;99.90
10390;DHT22;5241;47.830;12.972;2022-12-07T00:49:22;3.40;99.90
10390;DHT22;5241;47.830;12.972;2022-12-07T00:51:49;3.40;99.90
10390;DHT22;5241;47.830;12.972;2022-12-07T00:54:14;3.40;99.90
10390;DHT22;5241;47.830;12.972;2022-12-07T00:56:40;3.40;99.90
10390;DHT22;5241;47.830;12.972;2022-12-07T00:59:06;3.40;99.90
10390;DHT22;5241;47.830;12.972;2022-12-07T01:01:34;3.40;99.90
10390;DHT22;5241;47.830;12.972;2022-12-07T01:04:00;3.40;99.90
10390;DHT22;5241;47.830;12.972;2022-12-07T01:06:30;3.50;99.90
10390;DHT22;5241;47.830;12.972;2022-12-07T01:08:55;3.40;99.90
10390;DHT22;5241;47.830;12.972;2022-12-07T01:11:23;3.50;99.90
10390;DHT22;5241;47.830;12.972;2022-12-07T01:13:54;3.50;99.90
10390;DHT22;5241;47.830;12.972;2022-12-07T01:16:21;3.50;99.90
10390;DHT22;5241;47.830;12.972;2022-12-07T01:18:49;3.50;99.90
10390;DHT22;5241;47.830;12.972;2022-12-07T01:21:26;3.50;99.90
10390;DHT22;5241;47.830;12.972;2022-12-07T01:23:53;3.50;99.90
10390;DHT22;5241;47.830;12.972;2022-12-07T01:26:23;3.50;99.90
10390;DHT22;5241;47.830;12.972;2022-12-07T01:28:49;3.50;99.90
10390;DHT22;5241;47.830;12.972;2022-12-07T01:31:17;3.50;99.90
10390;DHT22;5241;47.830;12.972;2022-12-07T01:33:45;3.50;99.90
10390;DHT22;5241;47.830;12.972;2022-12-07T01:36:26;3.40;99.90
10390;DHT22;5241;47.830;12.972;2022-12-07T01:38:55;3.40;99.90
10390;DHT22;5241;47.830;12.972;2022-12-07T01:41:23;3.50;99.90
10390;DHT22;5241;47.830;12.972;2022-12-07T01:46:47;3.50;99.90
10390;DHT22;5241;47.830;12.972;2022-12-07T01:52:20;3.50;99.90
10390;DHT22;5241;47.830;12.972;2022-12-07T01:54:50;3.50;99.90
10390;DHT22;5241;47.830;12.972;2022-12-07T01:57:18;3.50;99.90
10390;DHT22;5241;47.830;12.972;2022-12-07T01:59:45;3.50;99.90
10390;DHT22;5241;47.830;12.972;2022-12-07T02:02:19;3.60;99.90
10390;DHT22;5241;47.830;12.972;2022-12-07T02:04:46;3.50;99.90
10390;DHT22;5241;47.830;12.972;2022-12-07T02:07:12;3.50;99.90
10390;DHT22;5241;47.830;12.972;2022-12-07T02:09:37;3.50;99.90
10390;DHT22;5241;47.830;12.972;2022-12-07T02:12:04;3.50;99.90
10390;DHT22;5241;47.830;12.972;2022-12-07T02:14:29;3.50;99.90
10390;DHT22;5241;47.830;12.972;2022-12-07T02:17:24;3.50;99.90
10390;DHT22;5241;47.830;12.972;2022-12-07T02:30:31;3.60;99.90
10390;DHT22;5241;47.830;12.972;2022-12-07T02:33:15;3.60;99.90
10390;DHT22;5241;47.830;12.972;2022-12-07T02:35:53;3.60;99.90
10390;DHT22;5241;47.830;12.972;2022-12-07T02:41:08;3.60;99.90
10390;DHT22;5241;47.830;12.972;2022-12-07T02:43:43;3.60;99.90
10390;DHT22;5241;47.830;12.972;2022-12-07T02:46:16;3.60;99.90
10390;DHT22;5241;47.830;12.972;2022-12-07T02:48:43;3.50;99.90
10390;DHT22;5241;47.830;12.972;2022-12-07T02:51:11;3.50;99.90
10390;DHT22;5241;47.830;12.972;2022-12-07T02:53:38;3.60;99.90
10390;DHT22;5241;47.830;12.972;2022-12-07T03:13:22;3.60;99.90
10390;DHT22;5241;47.830;12.972;2022-12-07T03:18:30;3.60;99.90
10390;DHT22;5241;47.830;12.972;2022-12-07T03:21:01;3.60;99.90
10390;DHT22;5241;47.830;12.972;2022-12-07T03:23:27;3.60;99.90
10390;DHT22;5241;47.830;12.972;2022-12-07T03:25:58;3.60;99.90
10390;DHT22;5241;47.830;12.972;2022-12-07T03:28:29;3.60;99.90
10390;DHT22;5241;47.830;12.972;2022-12-07T03:31:22;3.60;99.90
10390;DHT22;5241;47.830;12.972;2022-12-07T03:33:59;3.50;99.90
10390;DHT22;5241;47.830;12.972;2022-12-07T03:39:33;3.50;99.90
10390;DHT22;5241;47.830;12.972;2022-12-07T03:42:00;3.50;99.90
10390;DHT22;5241;47.830;12.972;2022-12-07T03:44:28;3.50;99.90
10390;DHT22;5241;47.830;12.972;2022-12-07T03:47:11;3.50;99.90
10390;DHT22;5241;47.830;12.972;2022-12-07T03:49:42;3.50;99.90
10390;DHT22;5241;47.830;12.972;2022-12-07T03:55:04;3.40;99.90
10390;DHT22;5241;47.830;12.972;2022-12-07T03:57:32;3.40;99.90
10390;DHT22;5241;47.830;12.972;2022-12-07T03:59:59;3.30;99.90
10390;DHT22;5241;47.830;12.972;2022-12-07T04:02:27;3.30;99.90
10390;DHT22;5241;47.830;12.972;2022-12-07T04:04:54;3.40;99.90
10390;DHT22;5241;47.830;12.972;2022-12-07T04:07:20;3.40;99.90
10390;DHT22;5241;47.830;12.972;2022-12-07T04:09:45;3.30;99.90
10390;DHT22;5241;47.830;12.972;2022-12-07T04:12:11;3.30;99.90
10390;DHT22;5241;47.830;12.972;2022-12-07T04:14:37;3.30;99.90
10390;DHT22;5241;47.830;12.972;2022-12-07T04:17:02;3.30;99.90
10390;DHT22;5241;47.830;12.972;2022-12-07T04:19:32;3.30;99.90
10390;DHT22;5241;47.830;12.972;2022-12-07T04:22:02;3.20;99.90
10390;DHT22;5241;47.830;12.972;2022-12-07T04:24:28;3.20;99.90
10390;DHT22;5241;47.830;12.972;2022-12-07T04:26:54;3.20;99.90
10390;DHT22;5241;47.830;12.972;2022-12-07T04:29:20;3.20;99.90
10390;DHT22;5241;47.830;12.972;2022-12-07T04:31:46;3.20;99.90
10390;DHT22;5241;47.830;12.972;2022-12-07T04:34:12;3.20;99.90
10390;DHT22;5241;47.830;12.972;2022-12-07T04:36:38;3.10;99.90
10390;DHT22;5241;47.830;12.972;2022-12-07T04:39:05;3.10;99.90
10390;DHT22;5241;47.830;12.972;2022-12-07T04:41:31;3.10;99.90
10390;DHT22;5241;47.830;12.972;2022-12-07T04:44:01;3.20;99.90
10390;DHT22;5241;47.830;12.972;2022-12-07T04:46:28;3.10;99.90
10390;DHT22;5241;47.830;12.972;2022-12-07T04:48:55;3.10;99.90
10390;DHT22;5241;47.830;12.972;2022-12-07T04:51:23;3.10;99.90
10390;DHT22;5241;47.830;12.972;2022-12-07T04:53:49;3.10;99.90
10390;DHT22;5241;47.830;12.972;2022-12-07T04:56:16;3.10;99.90
10390;DHT22;5241;47.830;12.972;2022-12-07T04:58:43;3.10;99.90
10390;DHT22;5241;47.830;12.972;2022-12-07T05:01:09;3.10;99.90
10390;DHT22;5241;47.830;12.972;2022-12-07T05:03:36;3.00;99.90
10390;DHT22;5241;47.830;12.972;2022-12-07T05:06:03;3.00;99.90
10390;DHT22;5241;47.830;12.972;2022-12-07T05:08:28;3.00;99.90
10390;DHT22;5241;47.830;12.972;2022-12-07T05:10:54;3.00;99.90
10390;DHT22;5241;47.830;12.972;2022-12-07T05:13:20;3.00;99.90
10390;DHT22;5241;47.830;12.972;2022-12-07T05:15:47;3.00;99.90
10390;DHT22;5241;47.830;12.972;2022-12-07T05:18:13;3.00;99.90
10390;DHT22;5241;47.830;12.972;2022-12-07T05:20:42;3.00;99.90
10390;DHT22;5241;47.830;12.972;2022-12-07T05:23:08;3.00;99.90
10390;DHT22;5241;47.830;12.972;2022-12-07T05:25:34;3.00;99.90
10390;DHT22;5241;47.830;12.972;2022-12-07T05:28:00;3.10;99.90
10390;DHT22;5241;47.830;12.972;2022-12-07T05:30:26;3.00;99.90
10390;DHT22;5241;47.830;12.972;2022-12-07T05:32:52;3.00;99.90
10390;DHT22;5241;47.830;12.972;2022-12-07T05:35:18;3.00;99.90
10390;DHT22;5241;47.830;12.972;2022-12-07T05:37:44;3.00;99.90
10390;DHT22;5241;47.830;12.972;2022-12-07T05:40:12;3.00;99.90
10390;DHT22;5241;47.830;12.972;2022-12-07T05:42:39;3.00;99.90
10390;DHT22;5241;47.830;12.972;2022-12-07T05:45:05;2.90;99.90
10390;DHT22;5241;47.830;12.972;2022-12-07T05:47:31;2.90;99.90
10390;DHT22;5241;47.830;12.972;2022-12-07T05:49:56;2.90;99.90
10390;DHT22;5241;47.830;12.972;2022-12-07T05:52:22;2.90;99.90
10390;DHT22;5241;47.830;12.972;2022-12-07T05:54:48;2.80;99.90
10390;DHT22;5241;47.830;12.972;2022-12-07T05:57:13;2.90;99.90
10390;DHT22;5241;47.830;12.972;2022-12-07T05:59:39;2.80;99.90
10390;DHT22;5241;47.830;12.972;2022-12-07T06:02:08;2.80;99.90
10390;DHT22;5241;47.830;12.972;2022-12-07T06:04:36;2.80;99.90
10390;DHT22;5241;47.830;12.972;2022-12-07T06:07:02;2.80;99.90
10390;DHT22;5241;47.830;12.972;2022-12-07T06:09:28;2.80;99.90
10390;DHT22;5241;47.830;12.972;2022-12-07T06:11:54;2.80;99.90
10390;DHT22;5241;47.830;12.972;2022-12-07T06:14:39;2.80;99.90
10390;DHT22;5241;47.830;12.972;2022-12-07T06:17:05;2.80;99.90
10390;DHT22;5241;47.830;12.972;2022-12-07T06:19:31;2.80;99.90
10390;DHT22;5241;47.830;12.972;2022-12-07T06:21:57;2.80;99.90
10390;DHT22;5241;47.830;12.972;2022-12-07T06:24:23;2.80;99.90
10390;DHT22;5241;47.830;12.972;2022-12-07T06:26:49;2.80;99.90
10390;DHT22;5241;47.830;12.972;2022-12-07T06:29:15;2.80;99.90
10390;DHT22;5241;47.830;12.972;2022-12-07T06:31:41;2.80;99.90
10390;DHT22;5241;47.830;12.972;2022-12-07T06:34:10;2.80;99.90
10390;DHT22;5241;47.830;12.972;2022-12-07T06:36:36;2.80;99.90
10390;DHT22;5241;47.830;12.972;2022-12-07T06:39:02;2.80;99.90
10390;DHT22;5241;47.830;12.972;2022-12-07T06:41:28;2.80;99.90
10390;DHT22;5241;47.830;12.972;2022-12-07T06:43:54;2.80;99.90
10390;DHT22;5241;47.830;12.972;2022-12-07T06:46:20;2.90;99.90
10390;DHT22;5241;47.830;12.972;2022-12-07T06:48:45;2.90;99.90
10390;DHT22;5241;47.830;12.972;2022-12-07T06:51:11;2.80;99.90
10390;DHT22;5241;47.830;12.972;2022-12-07T06:53:37;2.80;99.90
10390;DHT22;5241;47.830;12.972;2022-12-07T06:56:04;2.90;99.90
10390;DHT22;5241;47.830;12.972;2022-12-07T06:58:30;2.80;99.90
10390;DHT22;5241;47.830;12.972;2022-12-07T07:00:56;2.80;99.90
10390;DHT22;5241;47.830;12.972;2022-12-07T07:03:21;2.90;99.90
10390;DHT22;5241;47.830;12.972;2022-12-07T07:05:47;2.80;99.90
10390;DHT22;5241;47.830;12.972;2022-12-07T07:08:13;2.90;99.90
10390;DHT22;5241;47.830;12.972;2022-12-07T07:10:38;2.80;99.90
10390;DHT22;5241;47.830;12.972;2022-12-07T07:13:04;2.90;99.90
10390;DHT22;5241;47.830;12.972;2022-12-07T07:15:30;2.90;99.90
10390;DHT22;5241;47.830;12.972;2022-12-07T07:17:56;2.90;99.90
10390;DHT22;5241;47.830;12.972;2022-12-07T07:20:22;2.90;99.90
10390;DHT22;5241;47.830;12.972;2022-12-07T07:22:48;2.90;99.90
10390;DHT22;5241;47.830;12.972;2022-12-07T07:25:14;2.90;99.90
10390;DHT22;5241;47.830;12.972;2022-12-07T07:27:39;2.90;99.90
10390;DHT22;5241;47.830;12.972;2022-12-07T07:30:06;2.90;99.90
10390;DHT22;5241;47.830;12.972;2022-12-07T07:32:31;2.90;99.90
10390;DHT22;5241;47.830;12.972;2022-12-07T07:34:57;2.90;99.90
10390;DHT22;5241;47.830;12.972;2022-12-07T07:37:23;3.00;99.90
10390;DHT22;5241;47.830;12.972;2022-12-07T07:39:48;2.90;99.90
10390;DHT22;5241;47.830;12.972;2022-12-07T07:42:14;3.00;99.90
10390;DHT22;5241;47.830;12.972;2022-12-07T07:44:39;3.00;99.90
10390;DHT22;5241;47.830;12.972;2022-12-07T07:47:05;3.00;99.90
10390;DHT22;5241;47.830;12.972;2022-12-07T07:49:30;3.00;99.90
10390;DHT22;5241;47.830;12.972;2022-12-07T07:51:56;3.00;99.90
10390;DHT22;5241;47.830;12.972;2022-12-07T07:54:22;3.10;99.90
10390;DHT22;5241;47.830;12.972;2022-12-07T07:56:47;3.10;99.90
10390;DHT22;5241;47.830;12.972;2022-12-07T07:59:13;3.10;99.90
10390;DHT22;5241;47.830;12.972;2022-12-07T08:01:39;3.10;99.90
10390;DHT22;5241;47.830;12.972;2022-12-07T08:04:05;3.20;99.90
10390;DHT22;5241;47.830;12.972;2022-12-07T08:06:30;3.10;99.90
10390;DHT22;5241;47.830;12.972;2022-12-07T08:08:56;3.10;99.90
10390;DHT22;5241;47.830;12.972;2022-12-07T08:11:23;3.20;99.90
10390;DHT22;5241;47.830;12.972;2022-12-07T08:13:49;3.20;99.90
10390;DHT22;5241;47.830;12.972;2022-12-07T08:16:15;3.30;99.90
10390;DHT22;5241;47.830;12.972;2022-12-07T08:18:41;3.30;99.90
10390;DHT22;5241;47.830;12.972;2022-12-07T08:21:09;3.30;99.90
10390;DHT22;5241;47.830;12.972;2022-12-07T08:23:35;3.30;99.90
10390;DHT22;5241;47.830;12.972;2022-12-07T08:26:02;3.30;99.90
10390;DHT22;5241;47.830;12.972;2022-12-07T08:28:29;3.30;99.90
10390;DHT22;5241;47.830;12.972;2022-12-07T08:31:02;3.30;99.90
10390;DHT22;5241;47.830;12.972;2022-12-07T08:33:28;3.30;99.90
10390;DHT22;5241;47.830;12.972;2022-12-07T08:35:53;3.30;99.90
10390;DHT22;5241;47.830;12.972;2022-12-07T08:38:19;3.20;99.90
10390;DHT22;5241;47.830;12.972;2022-12-07T08:40:45;3.20;99.90
10390;DHT22;5241;47.830;12.972;2022-12-07T08:43:10;3.10;99.90
10390;DHT22;5241;47.830;12.972;2022-12-07T08:45:36;3.10;99.90
10390;DHT22;5241;47.830;12.972;2022-12-07T08:48:06;3.10;99.90
10390;DHT22;5241;47.830;12.972;2022-12-07T08:50:32;3.10;99.90
10390;DHT22;5241;47.830;12.972;2022-12-07T08:53:00;3.10;99.90
10390;DHT22;5241;47.830;12.972;2022-12-07T08:55:27;3.00;99.90
10390;DHT22;5241;47.830;12.972;2022-12-07T08:57:53;3.10;99.90
10390;DHT22;5241;47.830;12.972;2022-12-07T09:00:19;3.10;99.90
10390;DHT22;5241;47.830;12.972;2022-12-07T09:02:45;3.00;99.90
10390;DHT22;5241;47.830;12.972;2022-12-07T09:05:11;3.10;99.90
10390;DHT22;5241;47.830;12.972;2022-12-07T09:07:37;3.10;99.90
10390;DHT22;5241;47.830;12.972;2022-12-07T09:10:04;3.00;99.90
10390;DHT22;5241;47.830;12.972;2022-12-07T09:12:30;3.00;99.90
10390;DHT22;5241;47.830;12.972;2022-12-07T09:14:55;3.00;99.90
10390;DHT22;5241;47.830;12.972;2022-12-07T09:17:21;2.90;99.90
10390;DHT22;5241;47.830;12.972;2022-12-07T09:19:47;3.00;99.90
10390;DHT22;5241;47.830;12.972;2022-12-07T09:22:12;2.90;99.90
10390;DHT22;5241;47.830;12.972;2022-12-07T09:24:38;3.00;99.90
10390;DHT22;5241;47.830;12.972;2022-12-07T09:27:04;3.00;99.90
10390;DHT22;5241;47.830;12.972;2022-12-07T09:29:29;3.10;99.90
10390;DHT22;5241;47.830;12.972;2022-12-07T09:31:55;3.00;99.90
10390;DHT22;5241;47.830;12.972;2022-12-07T09:34:20;3.10;99.90
10390;DHT22;5241;47.830;12.972;2022-12-07T09:36:46;3.10;99.90
10390;DHT22;5241;47.830;12.972;2022-12-07T09:39:12;3.10;99.90
10390;DHT22;5241;47.830;12.972;2022-12-07T09:41:40;3.00;99.90
10390;DHT22;5241;47.830;12.972;2022-12-07T09:44:11;3.00;99.90
10390;DHT22;5241;47.830;12.972;2022-12-07T09:46:40;3.10;99.90
10390;DHT22;5241;47.830;12.972;2022-12-07T09:49:18;3.00;99.90
10390;DHT22;5241;47.830;12.972;2022-12-07T09:51:44;3.00;99.90
10390;DHT22;5241;47.830;12.972;2022-12-07T09:54:13;2.90;99.90
10390;DHT22;5241;47.830;12.972;2022-12-07T09:56:40;2.90;99.90
10390;DHT22;5241;47.830;12.972;2022-12-07T09:59:05;2.90;99.90
10390;DHT22;5241;47.830;12.972;2022-12-07T10:01:33;2.80;99.90
10390;DHT22;5241;47.830;12.972;2022-12-07T10:06:36;2.90;99.90
10390;DHT22;5241;47.830;12.972;2022-12-07T10:09:02;2.90;99.90
10390;DHT22;5241;47.830;12.972;2022-12-07T10:11:28;2.80;99.90
10390;DHT22;5241;47.830;12.972;2022-12-07T10:13:54;2.90;99.90
10390;DHT22;5241;47.830;12.972;2022-12-07T10:16:38;2.90;99.90
10390;DHT22;5241;47.830;12.972;2022-12-07T10:19:26;2.90;99.90
10390;DHT22;5241;47.830;12.972;2022-12-07T10:22:14;3.00;99.90
10390;DHT22;5241;47.830;12.972;2022-12-07T10:24:41;3.00;99.90
10390;DHT22;5241;47.830;12.972;2022-12-07T10:27:31;3.00;99.90
10390;DHT22;5241;47.830;12.972;2022-12-07T10:29:58;3.10;99.90
10390;DHT22;5241;47.830;12.972;2022-12-07T10:32:33;3.10;99.90
10390;DHT22;5241;47.830;12.972;2022-12-07T10:37:44;3.20;99.90
10390;DHT22;5241;47.830;12.972;2022-12-07T10:40:32;3.30;99.90
10390;DHT22;5241;47.830;12.972;2022-12-07T10:48:16;3.20;99.90
10390;DHT22;5241;47.830;12.972;2022-12-07T10:58:45;3.30;99.90
10390;DHT22;5241;47.830;12.972;2022-12-07T11:09:21;3.30;99.90
10390;DHT22;5241;47.830;12.972;2022-12-07T11:12:04;3.40;99.90
10390;DHT22;5241;47.830;12.972;2022-12-07T11:14:41;3.50;99.90
10390;DHT22;5241;47.830;12.972;2022-12-07T11:17:29;3.50;99.90
10390;DHT22;5241;47.830;12.972;2022-12-07T11:31:47;3.70;99.90
10390;DHT22;5241;47.830;12.972;2022-12-07T11:34:32;3.70;99.90
10390;DHT22;5241;47.830;12.972;2022-12-07T11:37:02;3.70;99.90
10390;DHT22;5241;47.830;12.972;2022-12-07T11:39:41;3.70;99.90
10390;DHT22;5241;47.830;12.972;2022-12-07T11:42:30;3.80;99.90
10390;DHT22;5241;47.830;12.972;2022-12-07T11:48:12;3.80;99.90
10390;DHT22;5241;47.830;12.972;2022-12-07T11:50:44;3.80;99.90
10390;DHT22;5241;47.830;12.972;2022-12-07T11:53:18;3.80;99.90
10390;DHT22;5241;47.830;12.972;2022-12-07T11:56:06;3.80;99.90
10390;DHT22;5241;47.830;12.972;2022-12-07T12:06:42;4.00;99.90
10390;DHT22;5241;47.830;12.972;2022-12-07T12:15:00;4.10;99.90
10390;DHT22;5241;47.830;12.972;2022-12-07T12:25:40;4.10;99.90
10390;DHT22;5241;47.830;12.972;2022-12-07T12:33:31;4.20;99.90
10390;DHT22;5241;47.830;12.972;2022-12-07T12:39:08;4.20;99.90
10390;DHT22;5241;47.830;12.972;2022-12-07T12:46:54;4.30;99.90
10390;DHT22;5241;47.830;12.972;2022-12-07T12:54:25;4.30;99.90
10390;DHT22;5241;47.830;12.972;2022-12-07T12:59:38;4.40;99.90
10390;DHT22;5241;47.830;12.972;2022-12-07T13:02:23;4.40;99.90
10390;DHT22;5241;47.830;12.972;2022-12-07T13:04:56;4.50;99.90
10390;DHT22;5241;47.830;12.972;2022-12-07T13:15:47;4.50;99.90
10390;DHT22;5241;47.830;12.972;2022-12-07T13:28:44;4.30;99.90
10390;DHT22;5241;47.830;12.972;2022-12-07T13:33:50;4.30;99.90
10390;DHT22;5241;47.830;12.972;2022-12-07T13:36:25;4.20;99.90
10390;DHT22;5241;47.830;12.972;2022-12-07T13:38:57;4.20;99.90
10390;DHT22;5241;47.830;12.972;2022-12-07T13:41:29;4.20;99.90
10390;DHT22;5241;47.830;12.972;2022-12-07T13:44:09;4.20;99.90
10390;DHT22;5241;47.830;12.972;2022-12-07T13:49:31;4.10;99.90
10390;DHT22;5241;47.830;12.972;2022-12-07T13:55:14;4.10;99.90
10390;DHT22;5241;47.830;12.972;2022-12-07T13:57:40;4.10;99.90
10390;DHT22;5241;47.830;12.972;2022-12-07T14:00:20;4.00;99.90
10390;DHT22;5241;47.830;12.972;2022-12-07T14:05:30;4.00;99.90
10390;DHT22;5241;47.830;12.972;2022-12-07T14:07:58;3.90;99.90
10390;DHT22;5241;47.830;12.972;2022-12-07T14:13:02;3.90;99.90
10390;DHT22;5241;47.830;12.972;2022-12-07T14:15:30;3.80;99.90
10390;DHT22;5241;47.830;12.972;2022-12-07T14:17:57;3.80;99.90
10390;DHT22;5241;47.830;12.972;2022-12-07T14:22:58;3.80;99.90
10390;DHT22;5241;47.830;12.972;2022-12-07T14:25:27;3.80;99.90
10390;DHT22;5241;47.830;12.972;2022-12-07T14:28:00;3.70;99.90
10390;DHT22;5241;47.830;12.972;2022-12-07T14:30:29;3.70;99.90
10390;DHT22;5241;47.830;12.972;2022-12-07T14:33:04;3.70;99.90
10390;DHT22;5241;47.830;12.972;2022-12-07T14:35:31;3.70;99.90
10390;DHT22;5241;47.830;12.972;2022-12-07T14:37:57;3.70;99.90
10390;DHT22;5241;47.830;12.972;2022-12-07T14:40:25;3.70;99.90
10390;DHT22;5241;47.830;12.972;2022-12-07T14:43:12;3.70;99.90
10390;DHT22;5241;47.830;12.972;2022-12-07T14:45:38;3.70;99.90
10390;DHT22;5241;47.830;12.972;2022-12-07T14:48:05;3.60;99.90
10390;DHT22;5241;47.830;12.972;2022-12-07T14:50:36;3.60;99.90
10390;DHT22;5241;47.830;12.972;2022-12-07T14:53:11;3.60;99.90
10390;DHT22;5241;47.830;12.972;2022-12-07T14:55:38;3.50;99.90
10390;DHT22;5241;47.830;12.972;2022-12-07T14:58:03;3.50;99.90
10390;DHT22;5241;47.830;12.972;2022-12-07T15:00:29;3.50;99.90
10390;DHT22;5241;47.830;12.972;2022-12-07T15:02:55;3.50;99.90
10390;DHT22;5241;47.830;12.972;2022-12-07T15:05:21;3.40;99.90
10390;DHT22;5241;47.830;12.972;2022-12-07T15:07:48;3.40;99.90
10390;DHT22;5241;47.830;12.972;2022-12-07T15:10:26;3.40;99.90
10390;DHT22;5241;47.830;12.972;2022-12-07T15:13:00;3.30;99.90
10390;DHT22;5241;47.830;12.972;2022-12-07T15:15:45;3.30;99.90
10390;DHT22;5241;47.830;12.972;2022-12-07T15:18:11;3.30;99.90
10390;DHT22;5241;47.830;12.972;2022-12-07T15:20:36;3.20;99.90
10390;DHT22;5241;47.830;12.972;2022-12-07T15:23:02;3.20;99.90
10390;DHT22;5241;47.830;12.972;2022-12-07T15:25:28;3.20;99.90
10390;DHT22;5241;47.830;12.972;2022-12-07T15:27:53;3.20;99.90
10390;DHT22;5241;47.830;12.972;2022-12-07T15:30:19;3.10;99.90
10390;DHT22;5241;47.830;12.972;2022-12-07T15:32:49;3.10;99.90
10390;DHT22;5241;47.830;12.972;2022-12-07T15:35:15;3.10;99.90
10390;DHT22;5241;47.830;12.972;2022-12-07T15:37:40;3.20;99.90
10390;DHT22;5241;47.830;12.972;2022-12-07T15:40:06;3.20;99.90
10390;DHT22;5241;47.830;12.972;2022-12-07T15:42:32;3.20;99.90
10390;DHT22;5241;47.830;12.972;2022-12-07T15:44:58;3.20;99.90
10390;DHT22;5241;47.830;12.972;2022-12-07T15:47:38;3.10;99.90
10390;DHT22;5241;47.830;12.972;2022-12-07T15:50:07;3.10;99.90
10390;DHT22;5241;47.830;12.972;2022-12-07T15:52:33;3.10;99.90
10390;DHT22;5241;47.830;12.972;2022-12-07T15:54:59;3.10;99.90
10390;DHT22;5241;47.830;12.972;2022-12-07T15:57:32;3.00;99.90
10390;DHT22;5241;47.830;12.972;2022-12-07T15:59:58;3.00;99.90
10390;DHT22;5241;47.830;12.972;2022-12-07T16:02:24;3.00;99.90
10390;DHT22;5241;47.830;12.972;2022-12-07T16:04:50;3.00;99.90
10390;DHT22;5241;47.830;12.972;2022-12-07T16:07:16;3.00;99.90
10390;DHT22;5241;47.830;12.972;2022-12-07T16:09:43;3.00;99.90
10390;DHT22;5241;47.830;12.972;2022-12-07T16:12:10;2.90;99.90
10390;DHT22;5241;47.830;12.972;2022-12-07T16:14:36;2.90;99.90
10390;DHT22;5241;47.830;12.972;2022-12-07T16:17:02;2.90;99.90
10390;DHT22;5241;47.830;12.972;2022-12-07T16:19:27;2.90;99.90
10390;DHT22;5241;47.830;12.972;2022-12-07T16:21:53;2.80;99.90
10390;DHT22;5241;47.830;12.972;2022-12-07T16:24:19;2.80;99.90
10390;DHT22;5241;47.830;12.972;2022-12-07T16:26:45;2.80;99.90
10390;DHT22;5241;47.830;12.972;2022-12-07T16:29:12;2.80;99.90
10390;DHT22;5241;47.830;12.972;2022-12-07T16:31:37;2.80;99.90
10390;DHT22;5241;47.830;12.972;2022-12-07T16:34:03;2.80;99.90
10390;DHT22;5241;47.830;12.972;2022-12-07T16:36:29;2.80;99.90
10390;DHT22;5241;47.830;12.972;2022-12-07T16:38:55;2.80;99.90
10390;DHT22;5241;47.830;12.972;2022-12-07T16:41:20;2.80;99.90
10390;DHT22;5241;47.830;12.972;2022-12-07T16:43:46;2.90;99.90
10390;DHT22;5241;47.830;12.972;2022-12-07T16:46:12;2.80;99.90
10390;DHT22;5241;47.830;12.972;2022-12-07T16:48:39;2.90;99.90
10390;DHT22;5241;47.830;12.972;2022-12-07T16:51:06;2.90;99.90
10390;DHT22;5241;47.830;12.972;2022-12-07T16:53:33;2.90;99.90
10390;DHT22;5241;47.830;12.972;2022-12-07T16:55:59;2.90;99.90
10390;DHT22;5241;47.830;12.972;2022-12-07T16:58:25;2.90;99.90
10390;DHT22;5241;47.830;12.972;2022-12-07T17:00:50;2.80;99.90
10390;DHT22;5241;47.830;12.972;2022-12-07T17:03:16;2.80;99.90
10390;DHT22;5241;47.830;12.972;2022-12-07T17:05:44;2.80;99.90
10390;DHT22;5241;47.830;12.972;2022-12-07T17:08:10;2.80;99.90
10390;DHT22;5241;47.830;12.972;2022-12-07T17:10:39;2.70;99.90
10390;DHT22;5241;47.830;12.972;2022-12-07T17:13:05;2.70;99.90
10390;DHT22;5241;47.830;12.972;2022-12-07T17:16:00;2.80;99.90
10390;DHT22;5241;47.830;12.972;2022-12-07T17:18:33;2.90;99.90
10390;DHT22;5241;47.830;12.972;2022-12-07T17:21:08;3.00;99.90
10390;DHT22;5241;47.830;12.972;2022-12-07T17:23:35;2.90;99.90
10390;DHT22;5241;47.830;12.972;2022-12-07T17:26:27;2.90;99.90
10390;DHT22;5241;47.830;12.972;2022-12-07T17:28:53;2.90;99.90
10390;DHT22;5241;47.830;12.972;2022-12-07T17:31:21;2.90;99.90
10390;DHT22;5241;47.830;12.972;2022-12-07T17:33:47;2.80;99.90
10390;DHT22;5241;47.830;12.972;2022-12-07T17:36:24;2.80;99.90
10390;DHT22;5241;47.830;12.972;2022-12-07T17:38:50;2.80;99.90
10390;DHT22;5241;47.830;12.972;2022-12-07T17:41:24;2.80;99.90
10390;DHT22;5241;47.830;12.972;2022-12-07T17:44:13;2.70;99.90
10390;DHT22;5241;47.830;12.972;2022-12-07T17:46:40;2.70;99.90
10390;DHT22;5241;47.830;12.972;2022-12-07T17:49:06;2.70;99.90
10390;DHT22;5241;47.830;12.972;2022-12-07T17:51:32;2.60;99.90
10390;DHT22;5241;47.830;12.972;2022-12-07T17:54:17;2.70;99.90
10390;DHT22;5241;47.830;12.972;2022-12-07T17:56:43;2.70;99.90
10390;DHT22;5241;47.830;12.972;2022-12-07T17:59:09;2.60;99.90
10390;DHT22;5241;47.830;12.972;2022-12-07T18:01:35;2.70;99.90
10390;DHT22;5241;47.830;12.972;2022-12-07T18:04:01;2.70;99.90
10390;DHT22;5241;47.830;12.972;2022-12-07T18:06:27;2.70;99.90
10390;DHT22;5241;47.830;12.972;2022-12-07T18:08:53;2.80;99.90
10390;DHT22;5241;47.830;12.972;2022-12-07T18:11:18;2.80;99.90
10390;DHT22;5241;47.830;12.972;2022-12-07T18:13:44;2.80;99.90
10390;DHT22;5241;47.830;12.972;2022-12-07T18:16:18;2.90;99.90
10390;DHT22;5241;47.830;12.972;2022-12-07T18:18:46;2.90;99.90
10390;DHT22;5241;47.830;12.972;2022-12-07T18:21:15;2.80;99.90
10390;DHT22;5241;47.830;12.972;2022-12-07T18:23:46;2.80;99.90
10390;DHT22;5241;47.830;12.972;2022-12-07T18:26:13;2.90;99.90
10390;DHT22;5241;47.830;12.972;2022-12-07T18:28:40;2.90;99.90
10390;DHT22;5241;47.830;12.972;2022-12-07T18:31:06;2.80;99.90
10390;DHT22;5241;47.830;12.972;2022-12-07T18:33:31;2.80;99.90
10390;DHT22;5241;47.830;12.972;2022-12-07T18:35:59;2.80;99.90
10390;DHT22;5241;47.830;12.972;2022-12-07T18:38:26;2.80;99.90